sensor_id;sensor_type;location;lat;lon;timestamp;temperature;humidity
27026;DHT22;14565;48.626;8.978;2023-09-07T00:00:10;14.10;99.90
27026;DHT22;14565;48.626;8.978;2023-09-07T00:02:36;14.00;99.90
27026;DHT22;14565;48.626;8.978;2023-09-07T00:05:02;13.80;99.90
27026;DHT22;14565;48.626;8.978;2023-09-07T00:07:27;13.70;99.90
27026;DHT22;14565;48.626;8.978;2023-09-07T00:09:53;13.70;99.90
27026;DHT22;14565;48.626;8.978;2023-09-07T00:12:19;13.70;99.90
27026;DHT22;14565;48.626;8.978;2023-09-07T00:14:44;13.60;99.90
27026;DHT22;14565;48.626;8.978;2023-09-07T00:17:10;13.60;99.90
27026;DHT22;14565;48.626;8.978;2023-09-07T00:19:36;13.50;99.90
27026;DHT22;14565;48.626;8.978;2023-09-07T00:22:03;13.50;99.90
27026;DHT22;14565;48.626;8.978;2023-09-07T00:24:29;13.50;99.90
27026;DHT22;14565;48.626;8.978;2023-09-07T00:26:55;13.60;99.90
27026;DHT22;14565;48.626;8.978;2023-09-07T00:29:20;13.50;99.90
27026;DHT22;14565;48.626;8.978;2023-09-07T00:31:46;13.50;99.90
27026;DHT22;14565;48.626;8.978;2023-09-07T00:34:11;13.60;99.90
27026;DHT22;14565;48.626;8.978;2023-09-07T00:36:37;13.60;99.90
27026;DHT22;14565;48.626;8.978;2023-09-07T00:39:03;13.50;99.90
27026;DHT22;14565;48.626;8.978;2023-09-07T00:41:29;13.50;99.90
27026;DHT22;14565;48.626;8.978;2023-09-07T00:43:55;13.50;99.90
27026;DHT22;14565;48.626;8.978;2023-09-07T00:46:20;13.50;99.90
27026;DHT22;14565;48.626;8.978;2023-09-07T00:48:47;13.50;99.90
27026;DHT22;14565;48.626;8.978;2023-09-07T00:51:13;13.40;99.90
27026;DHT22;14565;48.626;8.978;2023-09-07T00:53:39;13.40;99.90
27026;DHT22;14565;48.626;8.978;2023-09-07T00:56:06;13.30;99.90
27026;DHT22;14565;48.626;8.978;2023-09-07T00:58:32;13.40;99.90
27026;DHT22;14565;48.626;8.978;2023-09-07T01:00:59;13.30;99.90
27026;DHT22;14565;48.626;8.978;2023-09-07T01:03:25;13.30;99.90
27026;DHT22;14565;48.626;8.978;2023-09-07T01:06:26;13.40;99.90
27026;DHT22;14565;48.626;8.978;2023-09-07T01:08:55;13.30;99.90
27026;DHT22;14565;48.626;8.978;2023-09-07T01:11:23;13.30;99.90
27026;DHT22;14565;48.626;8.978;2023-09-07T01:13:49;13.30;99.90
27026;DHT22;14565;48.626;8.978;2023-09-07T01:16:15;13.30;99.90
27026;DHT22;14565;48.626;8.978;2023-09-07T01:18:42;13.30;99.90
27026;DHT22;14565;48.626;8.978;2023-09-07T01:21:09;13.30;99.90
27026;DHT22;14565;48.626;8.978;2023-09-07T01:23:38;13.30;99.90
27026;DHT22;14565;48.626;8.978;2023-09-07T01:26:06;13.30;99.90
27026;DHT22;14565;48.626;8.978;2023-09-07T01:28:32;13.30;99.90
27026;DHT22;14565;48.626;8.978;2023-09-07T01:30:58;13.30;99.90
27026;DHT22;14565;48.626;8.978;2023-09-07T01:33:24;13.30;99.90
27026;DHT22;14565;48.626;8.978;2023-09-07T01:35:50;13.20;99.90
27026;DHT22;14565;48.626;8.978;2023-09-07T01:38:15;13.30;99.90
27026;DHT22;14565;48.626;8.978;2023-09-07T01:40:41;13.20;99.90
27026;DHT22;14565;48.626;8.978;2023-09-07T01:43:06;13.10;99.90
27026;DHT22;14565;48.626;8.978;2023-09-07T01:45:32;13.00;99.90
27026;DHT22;14565;48.626;8.978;2023-09-07T01:47:59;13.00;99.90
27026;DHT22;14565;48.626;8.978;2023-09-07T01:50:25;12.90;99.90
27026;DHT22;14565;48.626;8.978;2023-09-07T01:52:51;12.80;99.90
27026;DHT22;14565;48.626;8.978;2023-09-07T01:55:17;12.90;99.90
27026;DHT22;14565;48.626;8.978;2023-09-07T01:57:43;12.80;99.90
27026;DHT22;14565;48.626;8.978;2023-09-07T02:00:10;12.80;99.90
27026;DHT22;14565;48.626;8.978;2023-09-07T02:02:36;12.80;99.90
27026;DHT22;14565;48.626;8.978;2023-09-07T02:05:02;12.80;99.90
27026;DHT22;14565;48.626;8.978;2023-09-07T02:07:27;12.80;99.90
27026;DHT22;14565;48.626;8.978;2023-09-07T02:09:53;12.80;99.90
27026;DHT22;14565;48.626;8.978;2023-09-07T02:12:19;12.90;99.90
27026;DHT22;14565;48.626;8.978;2023-09-07T02:14:44;12.90;99.90
27026;DHT22;14565;48.626;8.978;2023-09-07T02:17:10;12.90;99.90
27026;DHT22;14565;48.626;8.978;2023-09-07T02:19:39;12.80;99.90
27026;DHT22;14565;48.626;8.978;2023-09-07T02:22:05;12.90;99.90
27026;DHT22;14565;48.626;8.978;2023-09-07T02:24:30;12.80;99.90
27026;DHT22;14565;48.626;8.978;2023-09-07T02:26:56;12.70;99.90
27026;DHT22;14565;48.626;8.978;2023-09-07T02:29:22;12.70;99.90
27026;DHT22;14565;48.626;8.978;2023-09-07T02:31:47;12.70;99.90
27026;DHT22;14565;48.626;8.978;2023-09-07T02:34:13;12.70;99.90
27026;DHT22;14565;48.626;8.978;2023-09-07T02:36:39;12.60;99.90
27026;DHT22;14565;48.626;8.978;2023-09-07T02:39:04;12.60;99.90
27026;DHT22;14565;48.626;8.978;2023-09-07T02:41:31;12.60;99.90
27026;DHT22;14565;48.626;8.978;2023-09-07T02:43:57;12.60;99.90
27026;DHT22;14565;48.626;8.978;2023-09-07T02:46:22;12.50;99.90
27026;DHT22;14565;48.626;8.978;2023-09-07T02:48:48;12.60;99.90
27026;DHT22;14565;48.626;8.978;2023-09-07T02:51:14;12.50;99.90
27026;DHT22;14565;48.626;8.978;2023-09-07T02:53:40;12.60;99.90
27026;DHT22;14565;48.626;8.978;2023-09-07T02:56:05;12.50;99.90
27026;DHT22;14565;48.626;8.978;2023-09-07T02:58:33;12.50;99.90
27026;DHT22;14565;48.626;8.978;2023-09-07T03:00:58;12.60;99.90
27026;DHT22;14565;48.626;8.978;2023-09-07T03:03:24;12.60;99.90
27026;DHT22;14565;48.626;8.978;2023-09-07T03:05:50;12.70;99.90
27026;DHT22;14565;48.626;8.978;2023-09-07T03:08:15;12.70;99.90
27026;DHT22;14565;48.626;8.978;2023-09-07T03:10:42;12.70;99.90
27026;DHT22;14565;48.626;8.978;2023-09-07T03:13:08;12.80;99.90
27026;DHT22;14565;48.626;8.978;2023-09-07T03:15:34;12.70;99.90
27026;DHT22;14565;48.626;8.978;2023-09-07T03:18:00;12.60;99.90
27026;DHT22;14565;48.626;8.978;2023-09-07T03:20:26;12.60;99.90
27026;DHT22;14565;48.626;8.978;2023-09-07T03:22:52;12.60;99.90
27026;DHT22;14565;48.626;8.978;2023-09-07T03:25:17;12.70;99.90
27026;DHT22;14565;48.626;8.978;2023-09-07T03:27:43;12.70;99.90
27026;DHT22;14565;48.626;8.978;2023-09-07T03:30:09;12.60;99.90
27026;DHT22;14565;48.626;8.978;2023-09-07T03:32:35;12.50;99.90
27026;DHT22;14565;48.626;8.978;2023-09-07T03:35:02;12.40;99.90
27026;DHT22;14565;48.626;8.978;2023-09-07T03:37:28;12.30;99.90
27026;DHT22;14565;48.626;8.978;2023-09-07T03:39:55;12.30;99.90
27026;DHT22;14565;48.626;8.978;2023-09-07T03:42:22;12.30;99.90
27026;DHT22;14565;48.626;8.978;2023-09-07T03:44:50;12.30;99.90
27026;DHT22;14565;48.626;8.978;2023-09-07T03:47:17;12.20;99.90
27026;DHT22;14565;48.626;8.978;2023-09-07T03:49:42;12.20;99.90
27026;DHT22;14565;48.626;8.978;2023-09-07T03:52:09;12.20;99.90
27026;DHT22;14565;48.626;8.978;2023-09-07T03:54:35;12.30;99.90
27026;DHT22;14565;48.626;8.978;2023-09-07T03:57:00;12.20;99.90
27026;DHT22;14565;48.626;8.978;2023-09-07T03:59:27;12.20;99.90
27026;DHT22;14565;48.626;8.978;2023-09-07T04:01:53;12.20;99.90
27026;DHT22;14565;48.626;8.978;2023-09-07T04:04:20;12.30;99.90
27026;DHT22;14565;48.626;8.978;2023-09-07T04:06:48;12.20;99.90
27026;DHT22;14565;48.626;8.978;2023-09-07T04:09:14;12.30;99.90
27026;DHT22;14565;48.626;8.978;2023-09-07T04:11:40;12.30;99.90
27026;DHT22;14565;48.626;8.978;2023-09-07T04:14:05;12.30;99.90
27026;DHT22;14565;48.626;8.978;2023-09-07T04:16:31;12.20;99.90
27026;DHT22;14565;48.626;8.978;2023-09-07T04:18:57;12.20;99.90
27026;DHT22;14565;48.626;8.978;2023-09-07T04:21:22;12.10;99.90
27026;DHT22;14565;48.626;8.978;2023-09-07T04:23:48;12.10;99.90
27026;DHT22;14565;48.626;8.978;2023-09-07T04:26:14;12.10;99.90
27026;DHT22;14565;48.626;8.978;2023-09-07T04:28:39;12.10;99.90
27026;DHT22;14565;48.626;8.978;2023-09-07T04:31:08;12.00;99.90
27026;DHT22;14565;48.626;8.978;2023-09-07T04:33:34;12.00;99.90
27026;DHT22;14565;48.626;8.978;2023-09-07T04:36:14;12.00;99.90
27026;DHT22;14565;48.626;8.978;2023-09-07T04:38:40;11.90;99.90
27026;DHT22;14565;48.626;8.978;2023-09-07T04:41:11;11.90;99.90
27026;DHT22;14565;48.626;8.978;2023-09-07T04:43:38;11.90;99.90
27026;DHT22;14565;48.626;8.978;2023-09-07T04:46:06;11.90;99.90
27026;DHT22;14565;48.626;8.978;2023-09-07T04:48:32;11.90;99.90
27026;DHT22;14565;48.626;8.978;2023-09-07T04:51:02;11.90;99.90
27026;DHT22;14565;48.626;8.978;2023-09-07T04:53:30;11.90;99.90
27026;DHT22;14565;48.626;8.978;2023-09-07T04:55:56;11.90;99.90
27026;DHT22;14565;48.626;8.978;2023-09-07T04:58:22;11.90;99.90
27026;DHT22;14565;48.626;8.978;2023-09-07T05:00:48;12.00;99.90
27026;DHT22;14565;48.626;8.978;2023-09-07T05:03:14;12.00;99.90
27026;DHT22;14565;48.626;8.978;2023-09-07T05:05:41;12.00;99.90
27026;DHT22;14565;48.626;8.978;2023-09-07T05:08:06;12.10;99.90
27026;DHT22;14565;48.626;8.978;2023-09-07T05:10:35;12.10;99.90
27026;DHT22;14565;48.626;8.978;2023-09-07T05:13:01;12.10;99.90
27026;DHT22;14565;48.626;8.978;2023-09-07T05:15:27;12.10;99.90
27026;DHT22;14565;48.626;8.978;2023-09-07T05:17:53;12.10;99.90
27026;DHT22;14565;48.626;8.978;2023-09-07T05:20:19;12.20;99.90
27026;DHT22;14565;48.626;8.978;2023-09-07T05:22:44;12.20;99.90
27026;DHT22;14565;48.626;8.978;2023-09-07T05:25:11;12.20;99.90
27026;DHT22;14565;48.626;8.978;2023-09-07T05:27:37;12.20;99.90
27026;DHT22;14565;48.626;8.978;2023-09-07T05:30:03;12.20;99.90
27026;DHT22;14565;48.626;8.978;2023-09-07T05:32:29;12.20;99.90
27026;DHT22;14565;48.626;8.978;2023-09-07T05:34:54;12.20;99.90
27026;DHT22;14565;48.626;8.978;2023-09-07T05:37:20;12.40;99.90
27026;DHT22;14565;48.626;8.978;2023-09-07T05:39:46;12.50;99.90
27026;DHT22;14565;48.626;8.978;2023-09-07T05:42:11;12.60;99.90
27026;DHT22;14565;48.626;8.978;2023-09-07T05:44:38;12.70;99.90
27026;DHT22;14565;48.626;8.978;2023-09-07T05:47:04;12.80;99.90
27026;DHT22;14565;48.626;8.978;2023-09-07T05:49:30;12.90;99.90
27026;DHT22;14565;48.626;8.978;2023-09-07T05:51:56;13.00;99.90
27026;DHT22;14565;48.626;8.978;2023-09-07T05:54:22;13.10;99.90
27026;DHT22;14565;48.626;8.978;2023-09-07T05:56:47;13.10;99.90
27026;DHT22;14565;48.626;8.978;2023-09-07T05:59:13;13.20;99.90
27026;DHT22;14565;48.626;8.978;2023-09-07T06:01:39;13.30;99.90
27026;DHT22;14565;48.626;8.978;2023-09-07T06:04:05;13.30;99.90
27026;DHT22;14565;48.626;8.978;2023-09-07T06:06:31;13.30;99.90
27026;DHT22;14565;48.626;8.978;2023-09-07T06:08:57;13.40;99.90
27026;DHT22;14565;48.626;8.978;2023-09-07T06:11:24;13.50;99.90
27026;DHT22;14565;48.626;8.978;2023-09-07T06:13:50;13.70;99.90
27026;DHT22;14565;48.626;8.978;2023-09-07T06:16:16;13.80;99.90
27026;DHT22;14565;48.626;8.978;2023-09-07T06:18:42;14.00;99.90
27026;DHT22;14565;48.626;8.978;2023-09-07T06:21:08;14.10;99.90
27026;DHT22;14565;48.626;8.978;2023-09-07T06:23:34;14.30;99.90
27026;DHT22;14565;48.626;8.978;2023-09-07T06:26:00;14.40;99.90
27026;DHT22;14565;48.626;8.978;2023-09-07T06:28:26;14.60;99.90
27026;DHT22;14565;48.626;8.978;2023-09-07T06:30:52;14.90;99.90
27026;DHT22;14565;48.626;8.978;2023-09-07T06:33:18;15.10;99.90
27026;DHT22;14565;48.626;8.978;2023-09-07T06:35:43;15.40;99.90
27026;DHT22;14565;48.626;8.978;2023-09-07T06:38:09;15.70;99.90
27026;DHT22;14565;48.626;8.978;2023-09-07T06:40:35;16.00;99.90
27026;DHT22;14565;48.626;8.978;2023-09-07T06:43:00;16.30;99.90
27026;DHT22;14565;48.626;8.978;2023-09-07T06:45:36;16.80;99.90
27026;DHT22;14565;48.626;8.978;2023-09-07T06:48:02;17.30;99.90
27026;DHT22;14565;48.626;8.978;2023-09-07T06:50:28;17.70;99.90
27026;DHT22;14565;48.626;8.978;2023-09-07T06:52:54;17.90;99.90
27026;DHT22;14565;48.626;8.978;2023-09-07T06:55:19;18.00;99.90
27026;DHT22;14565;48.626;8.978;2023-09-07T06:57:45;18.10;99.90
27026;DHT22;14565;48.626;8.978;2023-09-07T07:00:11;18.40;99.90
27026;DHT22;14565;48.626;8.978;2023-09-07T07:02:37;18.70;99.90
27026;DHT22;14565;48.626;8.978;2023-09-07T07:05:04;19.30;99.90
27026;DHT22;14565;48.626;8.978;2023-09-07T07:07:30;19.70;99.90
27026;DHT22;14565;48.626;8.978;2023-09-07T07:09:55;19.70;99.90
27026;DHT22;14565;48.626;8.978;2023-09-07T07:12:39;19.60;99.90
27026;DHT22;14565;48.626;8.978;2023-09-07T07:15:05;19.80;99.90
27026;DHT22;14565;48.626;8.978;2023-09-07T07:17:32;19.50;99.90
27026;DHT22;14565;48.626;8.978;2023-09-07T07:19:58;19.50;99.90
27026;DHT22;14565;48.626;8.978;2023-09-07T07:22:23;19.80;99.90
27026;DHT22;14565;48.626;8.978;2023-09-07T07:24:49;19.90;99.90
27026;DHT22;14565;48.626;8.978;2023-09-07T07:27:15;20.40;99.90
27026;DHT22;14565;48.626;8.978;2023-09-07T07:29:40;20.20;99.90
27026;DHT22;14565;48.626;8.978;2023-09-07T07:32:06;20.40;99.90
27026;DHT22;14565;48.626;8.978;2023-09-07T07:34:32;20.50;99.90
27026;DHT22;14565;48.626;8.978;2023-09-07T07:36:58;20.80;99.90
27026;DHT22;14565;48.626;8.978;2023-09-07T07:39:23;20.80;99.90
27026;DHT22;14565;48.626;8.978;2023-09-07T07:41:49;21.10;99.90
27026;DHT22;14565;48.626;8.978;2023-09-07T07:44:14;20.90;99.90
27026;DHT22;14565;48.626;8.978;2023-09-07T07:46:40;21.20;99.90
27026;DHT22;14565;48.626;8.978;2023-09-07T07:49:06;21.30;99.90
27026;DHT22;14565;48.626;8.978;2023-09-07T07:51:31;21.30;99.90
27026;DHT22;14565;48.626;8.978;2023-09-07T07:53:57;21.20;99.90
27026;DHT22;14565;48.626;8.978;2023-09-07T07:56:23;21.60;99.90
27026;DHT22;14565;48.626;8.978;2023-09-07T07:58:49;21.90;99.90
27026;DHT22;14565;48.626;8.978;2023-09-07T08:01:17;21.80;99.90
27026;DHT22;14565;48.626;8.978;2023-09-07T08:03:43;21.70;99.90
27026;DHT22;14565;48.626;8.978;2023-09-07T08:06:09;21.70;99.90
27026;DHT22;14565;48.626;8.978;2023-09-07T08:08:36;21.90;99.90
27026;DHT22;14565;48.626;8.978;2023-09-07T08:11:01;22.20;99.90
27026;DHT22;14565;48.626;8.978;2023-09-07T08:13:32;22.10;99.90
27026;DHT22;14565;48.626;8.978;2023-09-07T08:15:58;22.30;99.90
27026;DHT22;14565;48.626;8.978;2023-09-07T08:18:23;22.40;99.90
27026;DHT22;14565;48.626;8.978;2023-09-07T08:20:49;22.40;99.90
27026;DHT22;14565;48.626;8.978;2023-09-07T08:23:15;22.10;99.90
27026;DHT22;14565;48.626;8.978;2023-09-07T08:25:40;22.20;99.90
27026;DHT22;14565;48.626;8.978;2023-09-07T08:28:10;22.20;99.90
27026;DHT22;14565;48.626;8.978;2023-09-07T08:30:36;22.20;99.90
27026;DHT22;14565;48.626;8.978;2023-09-07T08:33:02;22.30;99.90
27026;DHT22;14565;48.626;8.978;2023-09-07T08:35:30;22.60;99.90
27026;DHT22;14565;48.626;8.978;2023-09-07T08:38:03;23.00;99.90
27026;DHT22;14565;48.626;8.978;2023-09-07T08:40:34;22.90;99.90
27026;DHT22;14565;48.626;8.978;2023-09-07T08:43:03;23.00;99.90
27026;DHT22;14565;48.626;8.978;2023-09-07T08:45:30;23.30;99.90
27026;DHT22;14565;48.626;8.978;2023-09-07T08:47:58;23.20;99.90
27026;DHT22;14565;48.626;8.978;2023-09-07T08:50:24;23.20;99.90
27026;DHT22;14565;48.626;8.978;2023-09-07T08:52:52;23.40;99.90
27026;DHT22;14565;48.626;8.978;2023-09-07T08:55:18;23.30;99.90
27026;DHT22;14565;48.626;8.978;2023-09-07T08:57:43;23.40;99.90
27026;DHT22;14565;48.626;8.978;2023-09-07T09:00:09;23.40;99.90
27026;DHT22;14565;48.626;8.978;2023-09-07T09:02:47;23.20;99.90
27026;DHT22;14565;48.626;8.978;2023-09-07T09:05:14;23.20;99.90
27026;DHT22;14565;48.626;8.978;2023-09-07T09:07:40;23.50;99.90
27026;DHT22;14565;48.626;8.978;2023-09-07T09:10:07;23.80;99.90
27026;DHT22;14565;48.626;8.978;2023-09-07T09:12:34;23.60;99.90
27026;DHT22;14565;48.626;8.978;2023-09-07T09:15:00;23.80;99.90
27026;DHT22;14565;48.626;8.978;2023-09-07T09:17:29;24.10;99.90
27026;DHT22;14565;48.626;8.978;2023-09-07T09:19:55;23.90;99.90
27026;DHT22;14565;48.626;8.978;2023-09-07T09:22:20;23.80;99.90
27026;DHT22;14565;48.626;8.978;2023-09-07T09:24:49;23.50;99.90
27026;DHT22;14565;48.626;8.978;2023-09-07T09:27:16;23.80;99.90
27026;DHT22;14565;48.626;8.978;2023-09-07T09:29:42;23.60;99.90
27026;DHT22;14565;48.626;8.978;2023-09-07T09:32:07;23.70;99.90
27026;DHT22;14565;48.626;8.978;2023-09-07T09:34:34;23.80;99.90
27026;DHT22;14565;48.626;8.978;2023-09-07T09:37:01;23.80;99.90
27026;DHT22;14565;48.626;8.978;2023-09-07T09:39:29;24.20;99.90
27026;DHT22;14565;48.626;8.978;2023-09-07T09:41:56;24.30;99.90
27026;DHT22;14565;48.626;8.978;2023-09-07T09:44:22;24.00;99.90
27026;DHT22;14565;48.626;8.978;2023-09-07T09:46:52;24.00;99.90
27026;DHT22;14565;48.626;8.978;2023-09-07T09:49:20;24.20;99.90
27026;DHT22;14565;48.626;8.978;2023-09-07T09:51:48;24.30;99.90
27026;DHT22;14565;48.626;8.978;2023-09-07T09:54:18;24.20;99.90
27026;DHT22;14565;48.626;8.978;2023-09-07T09:56:45;24.30;99.90
27026;DHT22;14565;48.626;8.978;2023-09-07T09:59:14;24.10;99.90
27026;DHT22;14565;48.626;8.978;2023-09-07T10:01:45;24.10;99.90
27026;DHT22;14565;48.626;8.978;2023-09-07T10:04:13;24.10;99.90
27026;DHT22;14565;48.626;8.978;2023-09-07T10:06:49;24.30;99.90
27026;DHT22;14565;48.626;8.978;2023-09-07T10:09:21;24.30;99.90
27026;DHT22;14565;48.626;8.978;2023-09-07T10:11:57;24.60;99.90
27026;DHT22;14565;48.626;8.978;2023-09-07T10:14:22;24.50;99.90
27026;DHT22;14565;48.626;8.978;2023-09-07T10:16:50;24.60;99.90
27026;DHT22;14565;48.626;8.978;2023-09-07T10:19:29;24.30;99.90
27026;DHT22;14565;48.626;8.978;2023-09-07T10:22:04;24.20;99.90
27026;DHT22;14565;48.626;8.978;2023-09-07T10:24:32;24.30;99.90
27026;DHT22;14565;48.626;8.978;2023-09-07T10:27:02;24.30;99.90
27026;DHT22;14565;48.626;8.978;2023-09-07T10:29:28;24.30;99.90
27026;DHT22;14565;48.626;8.978;2023-09-07T10:31:53;24.30;99.90
27026;DHT22;14565;48.626;8.978;2023-09-07T10:34:19;24.50;99.90
27026;DHT22;14565;48.626;8.978;2023-09-07T10:36:46;24.60;99.90
27026;DHT22;14565;48.626;8.978;2023-09-07T10:39:12;24.70;99.90
27026;DHT22;14565;48.626;8.978;2023-09-07T10:41:42;24.80;99.90
27026;DHT22;14565;48.626;8.978;2023-09-07T10:44:08;24.80;99.90
27026;DHT22;14565;48.626;8.978;2023-09-07T10:46:37;24.90;99.90
27026;DHT22;14565;48.626;8.978;2023-09-07T10:49:07;24.90;99.90
27026;DHT22;14565;48.626;8.978;2023-09-07T10:51:40;24.70;99.90
27026;DHT22;14565;48.626;8.978;2023-09-07T10:54:14;24.80;99.90
27026;DHT22;14565;48.626;8.978;2023-09-07T10:56:42;24.90;99.90
27026;DHT22;14565;48.626;8.978;2023-09-07T10:59:08;24.90;99.90
27026;DHT22;14565;48.626;8.978;2023-09-07T11:01:34;24.90;99.90
27026;DHT22;14565;48.626;8.978;2023-09-07T11:03:59;25.10;99.90
27026;DHT22;14565;48.626;8.978;2023-09-07T11:06:25;25.20;99.90
27026;DHT22;14565;48.626;8.978;2023-09-07T11:08:51;25.10;99.90
27026;DHT22;14565;48.626;8.978;2023-09-07T11:11:17;25.10;99.90
27026;DHT22;14565;48.626;8.978;2023-09-07T11:13:43;25.00;99.90
27026;DHT22;14565;48.626;8.978;2023-09-07T11:16:09;25.10;99.90
27026;DHT22;14565;48.626;8.978;2023-09-07T11:18:35;25.10;99.90
27026;DHT22;14565;48.626;8.978;2023-09-07T11:21:01;24.80;99.90
27026;DHT22;14565;48.626;8.978;2023-09-07T11:23:29;24.80;99.90
27026;DHT22;14565;48.626;8.978;2023-09-07T11:25:56;24.90;99.90
27026;DHT22;14565;48.626;8.978;2023-09-07T11:28:23;25.00;99.90
27026;DHT22;14565;48.626;8.978;2023-09-07T11:30:54;25.00;99.90
27026;DHT22;14565;48.626;8.978;2023-09-07T11:33:21;25.10;99.90
27026;DHT22;14565;48.626;8.978;2023-09-07T11:35:48;25.10;99.90
27026;DHT22;14565;48.626;8.978;2023-09-07T11:38:14;25.20;99.90
27026;DHT22;14565;48.626;8.978;2023-09-07T11:40:41;25.20;99.90
27026;DHT22;14565;48.626;8.978;2023-09-07T11:43:14;25.30;99.90
27026;DHT22;14565;48.626;8.978;2023-09-07T11:45:44;25.30;99.90
27026;DHT22;14565;48.626;8.978;2023-09-07T11:48:10;25.40;99.90
27026;DHT22;14565;48.626;8.978;2023-09-07T11:50:37;25.40;99.90
27026;DHT22;14565;48.626;8.978;2023-09-07T11:53:06;25.30;99.90
27026;DHT22;14565;48.626;8.978;2023-09-07T11:55:34;25.40;99.90
27026;DHT22;14565;48.626;8.978;2023-09-07T11:58:01;25.60;99.90
27026;DHT22;14565;48.626;8.978;2023-09-07T12:00:27;25.40;99.90
27026;DHT22;14565;48.626;8.978;2023-09-07T12:02:53;25.40;99.90
27026;DHT22;14565;48.626;8.978;2023-09-07T12:05:19;25.30;99.90
27026;DHT22;14565;48.626;8.978;2023-09-07T12:07:45;25.50;99.90
27026;DHT22;14565;48.626;8.978;2023-09-07T12:10:11;25.40;99.90
27026;DHT22;14565;48.626;8.978;2023-09-07T12:12:39;25.50;99.90
27026;DHT22;14565;48.626;8.978;2023-09-07T12:15:06;25.60;99.90
27026;DHT22;14565;48.626;8.978;2023-09-07T12:17:33;25.60;99.90
27026;DHT22;14565;48.626;8.978;2023-09-07T12:19:59;25.50;99.90
27026;DHT22;14565;48.626;8.978;2023-09-07T12:22:26;25.50;99.90
27026;DHT22;14565;48.626;8.978;2023-09-07T12:24:52;25.40;99.90
27026;DHT22;14565;48.626;8.978;2023-09-07T12:27:18;25.40;99.90
27026;DHT22;14565;48.626;8.978;2023-09-07T12:29:44;25.40;99.90
27026;DHT22;14565;48.626;8.978;2023-09-07T12:32:10;25.60;99.90
27026;DHT22;14565;48.626;8.978;2023-09-07T12:34:36;25.40;99.90
27026;DHT22;14565;48.626;8.978;2023-09-07T12:37:02;25.50;99.90
27026;DHT22;14565;48.626;8.978;2023-09-07T12:39:32;25.60;99.90
27026;DHT22;14565;48.626;8.978;2023-09-07T12:41:57;25.80;99.90
27026;DHT22;14565;48.626;8.978;2023-09-07T12:44:23;25.80;99.90
27026;DHT22;14565;48.626;8.978;2023-09-07T12:46:49;25.80;99.90
27026;DHT22;14565;48.626;8.978;2023-09-07T12:49:14;25.70;99.90
27026;DHT22;14565;48.626;8.978;2023-09-07T12:51:44;25.80;99.90
27026;DHT22;14565;48.626;8.978;2023-09-07T12:54:10;25.70;99.90
27026;DHT22;14565;48.626;8.978;2023-09-07T12:56:36;25.80;99.90
27026;DHT22;14565;48.626;8.978;2023-09-07T12:59:02;25.90;99.90
27026;DHT22;14565;48.626;8.978;2023-09-07T13:01:29;26.00;99.90
27026;DHT22;14565;48.626;8.978;2023-09-07T13:03:55;26.00;99.90
27026;DHT22;14565;48.626;8.978;2023-09-07T13:06:20;26.10;99.90
27026;DHT22;14565;48.626;8.978;2023-09-07T13:08:46;26.00;99.90
27026;DHT22;14565;48.626;8.978;2023-09-07T13:11:12;25.90;99.90
27026;DHT22;14565;48.626;8.978;2023-09-07T13:13:38;26.00;99.90
27026;DHT22;14565;48.626;8.978;2023-09-07T13:16:04;26.10;99.90
27026;DHT22;14565;48.626;8.978;2023-09-07T13:18:29;25.90;99.90
27026;DHT22;14565;48.626;8.978;2023-09-07T13:20:56;26.00;99.90
27026;DHT22;14565;48.626;8.978;2023-09-07T13:23:30;26.30;99.90
27026;DHT22;14565;48.626;8.978;2023-09-07T13:25:57;26.10;99.90
27026;DHT22;14565;48.626;8.978;2023-09-07T13:28:23;26.30;99.90
27026;DHT22;14565;48.626;8.978;2023-09-07T13:30:50;26.40;99.90
27026;DHT22;14565;48.626;8.978;2023-09-07T13:33:16;26.30;99.90
27026;DHT22;14565;48.626;8.978;2023-09-07T13:35:41;26.40;99.90
27026;DHT22;14565;48.626;8.978;2023-09-07T13:38:07;26.40;99.90
27026;DHT22;14565;48.626;8.978;2023-09-07T13:40:33;26.40;99.90
27026;DHT22;14565;48.626;8.978;2023-09-07T13:42:58;26.40;99.90
27026;DHT22;14565;48.626;8.978;2023-09-07T13:45:24;26.60;99.90
27026;DHT22;14565;48.626;8.978;2023-09-07T13:47:50;26.60;99.90
27026;DHT22;14565;48.626;8.978;2023-09-07T13:50:16;26.70;99.90
27026;DHT22;14565;48.626;8.978;2023-09-07T13:52:41;26.40;99.90
27026;DHT22;14565;48.626;8.978;2023-09-07T13:55:07;26.60;99.90
27026;DHT22;14565;48.626;8.978;2023-09-07T13:57:33;26.70;99.90
27026;DHT22;14565;48.626;8.978;2023-09-07T14:00:00;26.60;99.90
27026;DHT22;14565;48.626;8.978;2023-09-07T14:02:26;26.30;99.90
27026;DHT22;14565;48.626;8.978;2023-09-07T14:04:51;26.50;99.90
27026;DHT22;14565;48.626;8.978;2023-09-07T14:07:17;26.70;99.90
27026;DHT22;14565;48.626;8.978;2023-09-07T14:09:43;26.70;99.90
27026;DHT22;14565;48.626;8.978;2023-09-07T14:12:10;26.80;99.90
27026;DHT22;14565;48.626;8.978;2023-09-07T14:14:37;26.70;99.90
27026;DHT22;14565;48.626;8.978;2023-09-07T14:17:03;26.60;99.90
27026;DHT22;14565;48.626;8.978;2023-09-07T14:19:29;26.80;99.90
27026;DHT22;14565;48.626;8.978;2023-09-07T14:21:59;26.90;99.90
27026;DHT22;14565;48.626;8.978;2023-09-07T14:24:25;27.00;99.90
27026;DHT22;14565;48.626;8.978;2023-09-07T14:26:51;27.10;99.90
27026;DHT22;14565;48.626;8.978;2023-09-07T14:29:17;27.10;99.90
27026;DHT22;14565;48.626;8.978;2023-09-07T14:31:43;27.00;99.90
27026;DHT22;14565;48.626;8.978;2023-09-07T14:34:10;26.90;99.90
27026;DHT22;14565;48.626;8.978;2023-09-07T14:36:36;27.00;99.90
27026;DHT22;14565;48.626;8.978;2023-09-07T14:39:02;27.00;99.90
27026;DHT22;14565;48.626;8.978;2023-09-07T14:41:28;27.00;99.90
27026;DHT22;14565;48.626;8.978;2023-09-07T14:43:56;26.90;99.90
27026;DHT22;14565;48.626;8.978;2023-09-07T14:46:21;27.00;99.90
27026;DHT22;14565;48.626;8.978;2023-09-07T14:48:48;27.00;99.90
27026;DHT22;14565;48.626;8.978;2023-09-07T14:51:15;26.80;99.90
27026;DHT22;14565;48.626;8.978;2023-09-07T14:53:40;26.90;99.90
27026;DHT22;14565;48.626;8.978;2023-09-07T14:56:06;27.00;99.90
27026;DHT22;14565;48.626;8.978;2023-09-07T14:58:32;27.10;99.90
27026;DHT22;14565;48.626;8.978;2023-09-07T15:00:58;27.20;99.90
27026;DHT22;14565;48.626;8.978;2023-09-07T15:03:24;27.20;99.90
27026;DHT22;14565;48.626;8.978;2023-09-07T15:05:49;27.10;99.90
27026;DHT22;14565;48.626;8.978;2023-09-07T15:08:15;27.10;99.90
27026;DHT22;14565;48.626;8.978;2023-09-07T15:10:41;27.20;99.90
27026;DHT22;14565;48.626;8.978;2023-09-07T15:13:07;27.20;99.90
27026;DHT22;14565;48.626;8.978;2023-09-07T15:15:34;27.10;99.90
27026;DHT22;14565;48.626;8.978;2023-09-07T15:18:03;27.20;99.90
27026;DHT22;14565;48.626;8.978;2023-09-07T15:20:29;27.10;99.90
27026;DHT22;14565;48.626;8.978;2023-09-07T15:22:55;27.00;99.90
27026;DHT22;14565;48.626;8.978;2023-09-07T15:25:20;27.10;99.90